My Meet Scores
Claire Rose Milarczyk, Aspire Gymnastics Academy - MyMeetScores.com
Top100 | Top Teams | Upcoming Meets | Completed Meets | Latest | Add Scores | Help| Support | Bookmark and Share

Claire Rose Milarczyk, Aspire Gymnastics Academy
Personal Bests
LevelVault BarsBeamFloorAA
39.3259.300 9.4508.85036.750
49.0009.300 9.1258.65035.600
Meet Scores
Date Meet Team Session Level Division Vault Bars Beam Floor AA
2019-03-22 Illinois Gymnastics State Championships Aspire Gymnastics Academy 7 4 YT D 8.625 21 9.200 16 9.125 17 8.650 25 35.600 20
2019-03-08 Lucky Invite Aspire Gymnastics Academy A09 4 Jr A 8.950 7 9.050 14 9.050 10T 8.500 17 35.550 12
2019-02-23 Kinetic Classic 2019 Aspire Gymnastics Academy 1 4 Middle 8.175 27T 9.300 13T 8.400 33 8.350 29T 34.225 27
2019-02-15 Big ClassicBIG CLASSIC Aspire Gymnastics Academy 5A 4 Child B 8.500 9 8.925 7 9.025 6 8.500 11T 34.950 8
2019-01-25 UGA Invitational Aspire Gymnastics Academy B06 4 Ch C 8.725 4 9.050 7 8.600 11 8.375 10 34.750 10
2019-01-18 2019 Bravo Classic Aspire Gymnastics Academy 3B 4 Jr 9.000 10T 8.575 16 8.825 14 8.100 22 34.500 18
2018-12-14 2018 Aspire Classic Aspire Gymnastics Academy 5A 4 Middle 8.750 18 8.850 12 8.850 21 8.650 23T 35.100 20
2018-12-07 St. Nick Invite 2018 Aspire Gymnastics Academy 5A 4 SrA 8.825 13 8.700 15 8.475 14T 6.600 17 32.600 16
2018-11-17 Paul Hamm Thanksgiving Class WOMENS Aspire Gymnastics Academy 6 4 Younger 8.725 14T 8.675 17T 8.500 19 8.650 20 34.550 19
2018-02-16 Big Classic Aspire Gymnastics Academy 1B 3 Child B 8.900 13T 9.275 11 8.650 18 8.050 19 34.875 15
2018-01-26 2018 UGA Classic Aspire Gymnastics Academy A8 3 Jr C 9.325 4T 9.125 11 9.450 6T 8.850 13 36.750 9
2018-01-19 2018 Bravo Classic Aspire Gymnastics Academy 7B 3 Sr 9.125 9 9.300 7 9.350 5 8.275 15 36.050 10
2017-03-30 2017 Illinois Level 3 & 5 State Aspire Gymnastics Academy All 3 Ch E 8.950 27T 9.050 21 8.700 21T 7.600 30 34.300 28
2017-02-24 Kinetic Classic Aspire Gymnastics Academy 4,5,6,7 3 All Ages 8.100 115 8.000 103T 8.425 84T 7.725 114 32.250 111
2017-02-18 2017 Great Western Invitational Women's Aspire Gymnastics Academy 1 3 Filly 8.800 15 8.550 15 8.450 13 8.425 19 34.225 16
2017-01-27 2017 UGA Invitational Aspire Gymnastics Academy B7 3 Jr A 8.350 14T 8.000 14 8.350 12 7.800 14 32.500 15
2017-01-20 2017 Bravo Classic Aspire Gymnastics Academy 11B 3 6-7yrs 8.700 13T 8.050 15 8.500 11 6.100 15 31.350 15
2016-12-16 2016 Aspire Classic Aspire Gymnastics Academy 11 3 Younger 7.400 17 7.600 18 8.250 10 7.000 18 30.250 17
2016-12-09 St. Nick Invite Aspire Gymnastics Academy 5 3 All 8.675 80T 7.400 85T 8.300 77T 7.300 89 31.675 87
2016-11-19 Paul Hamm Thanksgiving Classic - 2016 Girls Aspire Gymnastics Academy 5 3 6-7 yrs 7.350 17 7.850 11 7.800 11T 7.375 15 30.375 16
Get your scores on
a t-shirt, pin, or hoodie

Order by December 13

www.lazysuits.com